sensor_id;sensor_type;location;lat;lon;timestamp;P1;durP1;ratioP1;P2;durP2;ratioP2
22515;SDS011;11424;48.860;9.624;2022-11-20T00:00:34;9.2;;;18.1;;
22515;SDS011;11424;48.860;9.624;2022-11-20T00:05:34;10.9;;;19.7;;
22515;SDS011;11424;48.860;9.624;2022-11-20T00:10:35;10;;;18.4;;
22515;SDS011;11424;48.860;9.624;2022-11-20T00:15:34;10.1;;;18.2;;
22515;SDS011;11424;48.860;9.624;2022-11-20T00:20:34;9;;;9.8;;
22515;SDS011;11424;48.860;9.624;2022-11-20T00:25:34;10.3;;;11.2;;
22515;SDS011;11424;48.860;9.624;2022-11-20T00:30:34;23;;;33.8;;
22515;SDS011;11424;48.860;9.624;2022-11-20T00:35:34;18.7;;;20.5;;
22515;SDS011;11424;48.860;9.624;2022-11-20T00:40:34;29.3;;;36;;
22515;SDS011;11424;48.860;9.624;2022-11-20T00:45:34;34.8;;;44.8;;
22515;SDS011;11424;48.860;9.624;2022-11-20T00:50:34;48.3;;;69.8;;
22515;SDS011;11424;48.860;9.624;2022-11-20T00:55:34;57.7;;;86.8;;
22515;SDS011;11424;48.860;9.624;2022-11-20T01:00:34;58.4;;;97.3;;
22515;SDS011;11424;48.860;9.624;2022-11-20T01:05:34;65.4;;;122;;
22515;SDS011;11424;48.860;9.624;2022-11-20T01:10:34;60;;;100.9;;
22515;SDS011;11424;48.860;9.624;2022-11-20T01:15:34;56;;;98.2;;
22515;SDS011;11424;48.860;9.624;2022-11-20T01:20:34;42;;;58.1;;
22515;SDS011;11424;48.860;9.624;2022-11-20T01:25:34;48.2;;;69.9;;
22515;SDS011;11424;48.860;9.624;2022-11-20T01:30:34;30.4;;;35.8;;
22515;SDS011;11424;48.860;9.624;2022-11-20T01:35:34;48;;;68.2;;
22515;SDS011;11424;48.860;9.624;2022-11-20T01:40:34;62.3;;;93.6;;
22515;SDS011;11424;48.860;9.624;2022-11-20T01:45:46;59.3;;;86.1;;
22515;SDS011;11424;48.860;9.624;2022-11-20T01:50:34;40.6;;;54.5;;
22515;SDS011;11424;48.860;9.624;2022-11-20T01:55:34;74;;;165.4;;
22515;SDS011;11424;48.860;9.624;2022-11-20T02:00:34;74.7;;;171.3;;
22515;SDS011;11424;48.860;9.624;2022-11-20T02:05:35;55.9;;;110.7;;
22515;SDS011;11424;48.860;9.624;2022-11-20T02:10:34;58;;;117.7;;
22515;SDS011;11424;48.860;9.624;2022-11-20T02:15:34;40.7;;;86.2;;
22515;SDS011;11424;48.860;9.624;2022-11-20T02:20:34;89;;;199.8;;
22515;SDS011;11424;48.860;9.624;2022-11-20T02:25:34;103.7;;;205.6;;
22515;SDS011;11424;48.860;9.624;2022-11-20T02:30:34;74.6;;;154.8;;
22515;SDS011;11424;48.860;9.624;2022-11-20T02:35:42;35.2;;;64.1;;
22515;SDS011;11424;48.860;9.624;2022-11-20T02:40:34;75;;;161.1;;
22515;SDS011;11424;48.860;9.624;2022-11-20T02:45:34;51.9;;;106.3;;
22515;SDS011;11424;48.860;9.624;2022-11-20T02:50:36;36.9;;;73.9;;
22515;SDS011;11424;48.860;9.624;2022-11-20T02:55:34;54.2;;;102.3;;
22515;SDS011;11424;48.860;9.624;2022-11-20T03:00:34;105.1;;;261.6;;
22515;SDS011;11424;48.860;9.624;2022-11-20T03:05:34;65.3;;;129;;
22515;SDS011;11424;48.860;9.624;2022-11-20T03:10:34;50.2;;;88;;
22515;SDS011;11424;48.860;9.624;2022-11-20T03:15:35;40.4;;;58.9;;
22515;SDS011;11424;48.860;9.624;2022-11-20T03:20:34;58.8;;;120.7;;
22515;SDS011;11424;48.860;9.624;2022-11-20T03:25:34;106.9;;;244.2;;
22515;SDS011;11424;48.860;9.624;2022-11-20T03:30:34;73.5;;;168.5;;
22515;SDS011;11424;48.860;9.624;2022-11-20T03:35:34;60.3;;;123.8;;
22515;SDS011;11424;48.860;9.624;2022-11-20T03:40:34;87.7;;;182.4;;
22515;SDS011;11424;48.860;9.624;2022-11-20T03:45:34;73.7;;;154.2;;
22515;SDS011;11424;48.860;9.624;2022-11-20T03:50:34;94.4;;;228.7;;
22515;SDS011;11424;48.860;9.624;2022-11-20T03:55:34;120.5;;;288.4;;
22515;SDS011;11424;48.860;9.624;2022-11-20T04:00:34;88.3;;;209.7;;
22515;SDS011;11424;48.860;9.624;2022-11-20T04:05:34;115;;;282.2;;
22515;SDS011;11424;48.860;9.624;2022-11-20T04:10:34;47.1;;;81;;
22515;SDS011;11424;48.860;9.624;2022-11-20T04:15:34;52.5;;;92.3;;
22515;SDS011;11424;48.860;9.624;2022-11-20T04:20:34;40.5;;;70.8;;
22515;SDS011;11424;48.860;9.624;2022-11-20T04:25:34;11;;;12.2;;
22515;SDS011;11424;48.860;9.624;2022-11-20T04:30:34;8.8;;;9.8;;
22515;SDS011;11424;48.860;9.624;2022-11-20T04:35:34;5.8;;;6.3;;
22515;SDS011;11424;48.860;9.624;2022-11-20T04:40:34;5.7;;;6.3;;
22515;SDS011;11424;48.860;9.624;2022-11-20T04:45:34;5.7;;;6.3;;
22515;SDS011;11424;48.860;9.624;2022-11-20T04:50:34;5.8;;;6.3;;
22515;SDS011;11424;48.860;9.624;2022-11-20T04:55:34;6.1;;;6.7;;
22515;SDS011;11424;48.860;9.624;2022-11-20T05:00:34;5.5;;;6;;
22515;SDS011;11424;48.860;9.624;2022-11-20T05:05:34;4.9;;;5.3;;
22515;SDS011;11424;48.860;9.624;2022-11-20T05:10:34;4.9;;;5.4;;
22515;SDS011;11424;48.860;9.624;2022-11-20T05:15:34;4.6;;;4.9;;
22515;SDS011;11424;48.860;9.624;2022-11-20T05:20:34;4.7;;;5.1;;
22515;SDS011;11424;48.860;9.624;2022-11-20T05:25:34;5.7;;;6.2;;
22515;SDS011;11424;48.860;9.624;2022-11-20T05:30:34;4.5;;;4.9;;
22515;SDS011;11424;48.860;9.624;2022-11-20T05:35:34;3.2;;;3.5;;
22515;SDS011;11424;48.860;9.624;2022-11-20T05:40:34;3.8;;;4.1;;
22515;SDS011;11424;48.860;9.624;2022-11-20T05:45:34;3.4;;;3.7;;
22515;SDS011;11424;48.860;9.624;2022-11-20T05:50:34;3.4;;;3.7;;
22515;SDS011;11424;48.860;9.624;2022-11-20T05:55:34;3.3;;;3.6;;
22515;SDS011;11424;48.860;9.624;2022-11-20T06:00:34;3.3;;;3.6;;
22515;SDS011;11424;48.860;9.624;2022-11-20T06:05:34;3.4;;;3.7;;
22515;SDS011;11424;48.860;9.624;2022-11-20T06:10:34;3.3;;;3.6;;
22515;SDS011;11424;48.860;9.624;2022-11-20T06:15:34;2.6;;;2.8;;
22515;SDS011;11424;48.860;9.624;2022-11-20T06:20:34;2.5;;;2.7;;
22515;SDS011;11424;48.860;9.624;2022-11-20T06:25:36;3.7;;;4.1;;
22515;SDS011;11424;48.860;9.624;2022-11-20T06:30:34;3.3;;;3.5;;
22515;SDS011;11424;48.860;9.624;2022-11-20T06:35:34;3.6;;;3.9;;
22515;SDS011;11424;48.860;9.624;2022-11-20T06:40:34;3;;;3.2;;
22515;SDS011;11424;48.860;9.624;2022-11-20T06:45:34;3.5;;;3.8;;
22515;SDS011;11424;48.860;9.624;2022-11-20T06:50:34;3.9;;;4.3;;
22515;SDS011;11424;48.860;9.624;2022-11-20T06:55:34;3.5;;;3.9;;
22515;SDS011;11424;48.860;9.624;2022-11-20T07:00:35;3.7;;;4;;
22515;SDS011;11424;48.860;9.624;2022-11-20T07:05:34;3.8;;;4.2;;
22515;SDS011;11424;48.860;9.624;2022-11-20T07:10:34;4.1;;;4.5;;
22515;SDS011;11424;48.860;9.624;2022-11-20T07:15:34;3.6;;;4;;
22515;SDS011;11424;48.860;9.624;2022-11-20T07:20:34;2.6;;;3.2;;
22515;SDS011;11424;48.860;9.624;2022-11-20T07:25:34;3.2;;;3.5;;
22515;SDS011;11424;48.860;9.624;2022-11-20T07:30:34;2.6;;;2.8;;
22515;SDS011;11424;48.860;9.624;2022-11-20T07:35:34;3.2;;;3.5;;
22515;SDS011;11424;48.860;9.624;2022-11-20T07:40:35;2.7;;;2.9;;
22515;SDS011;11424;48.860;9.624;2022-11-20T07:45:34;2.9;;;3.1;;
22515;SDS011;11424;48.860;9.624;2022-11-20T07:50:34;2.8;;;3.1;;
22515;SDS011;11424;48.860;9.624;2022-11-20T07:55:34;3;;;3.3;;
22515;SDS011;11424;48.860;9.624;2022-11-20T08:00:34;2.6;;;2.8;;
22515;SDS011;11424;48.860;9.624;2022-11-20T08:05:34;3.1;;;3.4;;
22515;SDS011;11424;48.860;9.624;2022-11-20T08:10:34;3;;;4;;
22515;SDS011;11424;48.860;9.624;2022-11-20T08:15:34;2.5;;;2.7;;
22515;SDS011;11424;48.860;9.624;2022-11-20T08:20:34;2.6;;;2.8;;
22515;SDS011;11424;48.860;9.624;2022-11-20T08:25:35;2.5;;;2.7;;
22515;SDS011;11424;48.860;9.624;2022-11-20T08:30:34;2;;;2.2;;
22515;SDS011;11424;48.860;9.624;2022-11-20T08:35:34;2.8;;;3.1;;
22515;SDS011;11424;48.860;9.624;2022-11-20T08:40:34;2.4;;;2.6;;
22515;SDS011;11424;48.860;9.624;2022-11-20T08:45:34;2.4;;;2.6;;
22515;SDS011;11424;48.860;9.624;2022-11-20T08:50:34;2.4;;;2.6;;
22515;SDS011;11424;48.860;9.624;2022-11-20T08:55:34;2.2;;;2.4;;
22515;SDS011;11424;48.860;9.624;2022-11-20T09:00:34;2.3;;;2.5;;
22515;SDS011;11424;48.860;9.624;2022-11-20T09:05:34;1.9;;;2.1;;
22515;SDS011;11424;48.860;9.624;2022-11-20T09:10:34;1.7;;;2.2;;
22515;SDS011;11424;48.860;9.624;2022-11-20T09:15:34;2;;;2.3;;
22515;SDS011;11424;48.860;9.624;2022-11-20T09:20:34;1.9;;;2.2;;
22515;SDS011;11424;48.860;9.624;2022-11-20T09:25:34;2.4;;;2.8;;
22515;SDS011;11424;48.860;9.624;2022-11-20T09:30:34;1.9;;;2.4;;
22515;SDS011;11424;48.860;9.624;2022-11-20T09:35:34;1.6;;;1.7;;
22515;SDS011;11424;48.860;9.624;2022-11-20T09:40:34;1.6;;;1.7;;
22515;SDS011;11424;48.860;9.624;2022-11-20T09:45:37;1.4;;;1.5;;
22515;SDS011;11424;48.860;9.624;2022-11-20T09:50:35;1.8;;;2;;
22515;SDS011;11424;48.860;9.624;2022-11-20T09:55:34;1.6;;;1.7;;
22515;SDS011;11424;48.860;9.624;2022-11-20T10:00:34;1.7;;;1.8;;
22515;SDS011;11424;48.860;9.624;2022-11-20T10:05:35;1.4;;;1.7;;
22515;SDS011;11424;48.860;9.624;2022-11-20T10:10:34;1.9;;;2.1;;
22515;SDS011;11424;48.860;9.624;2022-11-20T10:15:37;1.7;;;1.9;;
22515;SDS011;11424;48.860;9.624;2022-11-20T10:20:37;1.5;;;1.6;;
22515;SDS011;11424;48.860;9.624;2022-11-20T10:25:37;1.4;;;1.5;;
22515;SDS011;11424;48.860;9.624;2022-11-20T10:30:34;1.8;;;2.3;;
22515;SDS011;11424;48.860;9.624;2022-11-20T10:35:35;1.3;;;1.6;;
22515;SDS011;11424;48.860;9.624;2022-11-20T10:40:35;1.2;;;1.3;;
22515;SDS011;11424;48.860;9.624;2022-11-20T10:45:40;1.3;;;1.3;;
22515;SDS011;11424;48.860;9.624;2022-11-20T10:50:34;1.1;;;1.2;;
22515;SDS011;11424;48.860;9.624;2022-11-20T10:55:38;1;;;1;;
22515;SDS011;11424;48.860;9.624;2022-11-20T11:00:34;1.1;;;1.1;;
22515;SDS011;11424;48.860;9.624;2022-11-20T11:05:36;1.1;;;1.2;;
22515;SDS011;11424;48.860;9.624;2022-11-20T11:10:36;1.1;;;1.2;;
22515;SDS011;11424;48.860;9.624;2022-11-20T11:15:37;1;;;1;;
22515;SDS011;11424;48.860;9.624;2022-11-20T11:20:34;1;;;1;;
22515;SDS011;11424;48.860;9.624;2022-11-20T11:25:35;1.3;;;1.4;;
22515;SDS011;11424;48.860;9.624;2022-11-20T11:30:41;1.3;;;1.4;;
22515;SDS011;11424;48.860;9.624;2022-11-20T11:35:38;1.2;;;1.2;;
22515;SDS011;11424;48.860;9.624;2022-11-20T11:40:35;1.5;;;1.6;;
22515;SDS011;11424;48.860;9.624;2022-11-20T11:45:34;1.3;;;1.4;;
22515;SDS011;11424;48.860;9.624;2022-11-20T11:50:34;1.6;;;1.8;;
22515;SDS011;11424;48.860;9.624;2022-11-20T11:55:35;1.4;;;1.7;;
22515;SDS011;11424;48.860;9.624;2022-11-20T12:00:34;1.2;;;1.3;;
22515;SDS011;11424;48.860;9.624;2022-11-20T12:05:36;1.3;;;1.3;;
22515;SDS011;11424;48.860;9.624;2022-11-20T12:10:37;1.2;;;1.3;;
22515;SDS011;11424;48.860;9.624;2022-11-20T12:15:34;1.4;;;1.6;;
22515;SDS011;11424;48.860;9.624;2022-11-20T12:20:35;1;;;1;;
22515;SDS011;11424;48.860;9.624;2022-11-20T12:25:35;1.8;;;2;;
22515;SDS011;11424;48.860;9.624;2022-11-20T12:35:38;1.9;;;2.2;;
22515;SDS011;11424;48.860;9.624;2022-11-20T12:40:35;2.2;;;2.4;;
22515;SDS011;11424;48.860;9.624;2022-11-20T12:45:42;1.2;;;1.3;;
22515;SDS011;11424;48.860;9.624;2022-11-20T12:50:37;1.3;;;1.4;;
22515;SDS011;11424;48.860;9.624;2022-11-20T12:55:36;1.6;;;1.7;;
22515;SDS011;11424;48.860;9.624;2022-11-20T13:00:34;1.4;;;1.5;;
22515;SDS011;11424;48.860;9.624;2022-11-20T13:05:37;1.3;;;1.4;;
22515;SDS011;11424;48.860;9.624;2022-11-20T13:10:35;1.5;;;1.6;;
22515;SDS011;11424;48.860;9.624;2022-11-20T13:15:37;1.3;;;1.9;;
22515;SDS011;11424;48.860;9.624;2022-11-20T13:20:34;1.5;;;1.8;;
22515;SDS011;11424;48.860;9.624;2022-11-20T13:25:35;1.3;;;1.4;;
22515;SDS011;11424;48.860;9.624;2022-11-20T13:30:34;1.3;;;1.9;;
22515;SDS011;11424;48.860;9.624;2022-11-20T13:35:35;1;;;1;;
22515;SDS011;11424;48.860;9.624;2022-11-20T13:40:36;1.2;;;1.2;;
22515;SDS011;11424;48.860;9.624;2022-11-20T13:45:34;1.2;;;1.3;;
22515;SDS011;11424;48.860;9.624;2022-11-20T13:50:44;1.6;;;2.2;;
22515;SDS011;11424;48.860;9.624;2022-11-20T13:55:35;1.5;;;1.6;;
22515;SDS011;11424;48.860;9.624;2022-11-20T14:00:41;1.3;;;1.5;;
22515;SDS011;11424;48.860;9.624;2022-11-20T14:05:35;1.1;;;1.2;;
22515;SDS011;11424;48.860;9.624;2022-11-20T14:10:34;1;;;1;;
22515;SDS011;11424;48.860;9.624;2022-11-20T14:15:34;1;;;1;;
22515;SDS011;11424;48.860;9.624;2022-11-20T14:20:34;0.9;;;1.2;;
22515;SDS011;11424;48.860;9.624;2022-11-20T14:25:34;1.2;;;1.3;;
22515;SDS011;11424;48.860;9.624;2022-11-20T14:30:37;1.1;;;1.2;;
22515;SDS011;11424;48.860;9.624;2022-11-20T14:35:35;0.9;;;0.9;;
22515;SDS011;11424;48.860;9.624;2022-11-20T14:40:35;1.3;;;1.4;;
22515;SDS011;11424;48.860;9.624;2022-11-20T14:45:34;1.5;;;2.1;;
22515;SDS011;11424;48.860;9.624;2022-11-20T14:50:34;1.1;;;1.2;;
22515;SDS011;11424;48.860;9.624;2022-11-20T14:55:36;1;;;1;;
22515;SDS011;11424;48.860;9.624;2022-11-20T15:00:34;0.8;;;0.8;;
22515;SDS011;11424;48.860;9.624;2022-11-20T15:05:50;0.9;;;1;;
22515;SDS011;11424;48.860;9.624;2022-11-20T15:10:34;0.8;;;0.8;;
22515;SDS011;11424;48.860;9.624;2022-11-20T15:15:35;1;;;1.1;;
22515;SDS011;11424;48.860;9.624;2022-11-20T15:20:34;0.9;;;1.1;;
22515;SDS011;11424;48.860;9.624;2022-11-20T15:25:34;1.1;;;1.1;;
22515;SDS011;11424;48.860;9.624;2022-11-20T15:30:34;1.2;;;1.2;;
22515;SDS011;11424;48.860;9.624;2022-11-20T15:35:35;1.2;;;1.3;;
22515;SDS011;11424;48.860;9.624;2022-11-20T15:40:35;1.7;;;1.9;;
22515;SDS011;11424;48.860;9.624;2022-11-20T15:45:36;1.5;;;1.6;;
22515;SDS011;11424;48.860;9.624;2022-11-20T15:50:36;1.2;;;1.3;;
22515;SDS011;11424;48.860;9.624;2022-11-20T15:55:35;1.3;;;1.4;;
22515;SDS011;11424;48.860;9.624;2022-11-20T16:00:34;1.3;;;1.4;;
22515;SDS011;11424;48.860;9.624;2022-11-20T16:05:34;1.8;;;2;;
22515;SDS011;11424;48.860;9.624;2022-11-20T16:10:35;2;;;2.3;;
22515;SDS011;11424;48.860;9.624;2022-11-20T16:15:35;3.7;;;5.1;;
22515;SDS011;11424;48.860;9.624;2022-11-20T16:20:35;2.8;;;3;;
22515;SDS011;11424;48.860;9.624;2022-11-20T16:25:35;2.6;;;2.9;;
22515;SDS011;11424;48.860;9.624;2022-11-20T16:30:35;2.1;;;2.2;;
22515;SDS011;11424;48.860;9.624;2022-11-20T16:35:35;2.4;;;2.6;;
22515;SDS011;11424;48.860;9.624;2022-11-20T16:40:35;2.2;;;2.5;;
22515;SDS011;11424;48.860;9.624;2022-11-20T16:45:37;5.2;;;9.1;;
22515;SDS011;11424;48.860;9.624;2022-11-20T16:50:35;3.5;;;5.8;;
22515;SDS011;11424;48.860;9.624;2022-11-20T16:55:35;3.5;;;5.8;;
22515;SDS011;11424;48.860;9.624;2022-11-20T17:00:35;3;;;3.7;;
22515;SDS011;11424;48.860;9.624;2022-11-20T17:05:35;2.8;;;4.2;;
22515;SDS011;11424;48.860;9.624;2022-11-20T17:10:35;3.1;;;4;;
22515;SDS011;11424;48.860;9.624;2022-11-20T17:15:35;7.6;;;10.7;;
22515;SDS011;11424;48.860;9.624;2022-11-20T17:20:35;3.8;;;4.4;;
22515;SDS011;11424;48.860;9.624;2022-11-20T17:25:35;1.8;;;2;;
22515;SDS011;11424;48.860;9.624;2022-11-20T17:30:35;3;;;3.2;;
22515;SDS011;11424;48.860;9.624;2022-11-20T17:35:35;2.5;;;2.7;;
22515;SDS011;11424;48.860;9.624;2022-11-20T17:40:35;2.1;;;2.2;;
22515;SDS011;11424;48.860;9.624;2022-11-20T17:45:35;2;;;2.2;;
22515;SDS011;11424;48.860;9.624;2022-11-20T17:50:35;1.7;;;1.8;;
22515;SDS011;11424;48.860;9.624;2022-11-20T17:55:35;1.5;;;1.6;;
22515;SDS011;11424;48.860;9.624;2022-11-20T18:00:35;1.5;;;1.7;;
22515;SDS011;11424;48.860;9.624;2022-11-20T18:05:35;2.1;;;3.1;;
22515;SDS011;11424;48.860;9.624;2022-11-20T18:10:35;1.6;;;2;;
22515;SDS011;11424;48.860;9.624;2022-11-20T18:15:35;1.6;;;1.8;;
22515;SDS011;11424;48.860;9.624;2022-11-20T18:20:35;1.6;;;2.2;;
22515;SDS011;11424;48.860;9.624;2022-11-20T18:25:35;2.1;;;2.4;;
22515;SDS011;11424;48.860;9.624;2022-11-20T18:30:35;1.7;;;1.8;;
22515;SDS011;11424;48.860;9.624;2022-11-20T18:35:35;1.4;;;1.5;;
22515;SDS011;11424;48.860;9.624;2022-11-20T18:40:35;1.4;;;1.5;;
22515;SDS011;11424;48.860;9.624;2022-11-20T18:45:35;1.7;;;2.1;;
22515;SDS011;11424;48.860;9.624;2022-11-20T18:50:35;1.6;;;1.7;;
22515;SDS011;11424;48.860;9.624;2022-11-20T18:55:35;2.1;;;2.8;;
22515;SDS011;11424;48.860;9.624;2022-11-20T19:00:35;1.8;;;2;;
22515;SDS011;11424;48.860;9.624;2022-11-20T19:05:35;1.9;;;2.6;;
22515;SDS011;11424;48.860;9.624;2022-11-20T19:10:35;1.5;;;2.1;;
22515;SDS011;11424;48.860;9.624;2022-11-20T19:15:35;1.5;;;1.6;;
22515;SDS011;11424;48.860;9.624;2022-11-20T19:20:35;6.3;;;10.5;;
22515;SDS011;11424;48.860;9.624;2022-11-20T19:25:35;3;;;3.9;;
22515;SDS011;11424;48.860;9.624;2022-11-20T19:30:35;2.6;;;2.9;;
22515;SDS011;11424;48.860;9.624;2022-11-20T19:35:35;1.8;;;1.9;;
22515;SDS011;11424;48.860;9.624;2022-11-20T19:40:35;1.5;;;1.6;;
22515;SDS011;11424;48.860;9.624;2022-11-20T19:45:35;1.6;;;1.7;;
22515;SDS011;11424;48.860;9.624;2022-11-20T19:50:35;2;;;2.6;;
22515;SDS011;11424;48.860;9.624;2022-11-20T19:55:35;1.6;;;2.2;;
22515;SDS011;11424;48.860;9.624;2022-11-20T20:00:35;1.7;;;2.1;;
22515;SDS011;11424;48.860;9.624;2022-11-20T20:05:35;1.4;;;1.5;;
22515;SDS011;11424;48.860;9.624;2022-11-20T20:10:35;1.5;;;1.6;;
22515;SDS011;11424;48.860;9.624;2022-11-20T20:15:38;1.7;;;1.8;;
22515;SDS011;11424;48.860;9.624;2022-11-20T20:20:35;1.7;;;1.9;;
22515;SDS011;11424;48.860;9.624;2022-11-20T20:25:35;1.6;;;1.7;;
22515;SDS011;11424;48.860;9.624;2022-11-20T20:30:35;1.4;;;1.8;;
22515;SDS011;11424;48.860;9.624;2022-11-20T20:35:38;1.4;;;1.7;;
22515;SDS011;11424;48.860;9.624;2022-11-20T20:40:35;1.5;;;1.6;;
22515;SDS011;11424;48.860;9.624;2022-11-20T20:45:35;1.8;;;2;;
22515;SDS011;11424;48.860;9.624;2022-11-20T20:50:35;2.2;;;2.6;;
22515;SDS011;11424;48.860;9.624;2022-11-20T20:55:35;5.8;;;11;;
22515;SDS011;11424;48.860;9.624;2022-11-20T21:00:35;3;;;4.6;;
22515;SDS011;11424;48.860;9.624;2022-11-20T21:05:35;3;;;4.4;;
22515;SDS011;11424;48.860;9.624;2022-11-20T21:10:35;2.3;;;2.8;;
22515;SDS011;11424;48.860;9.624;2022-11-20T21:15:37;1.5;;;1.9;;
22515;SDS011;11424;48.860;9.624;2022-11-20T21:20:37;1.6;;;2;;
22515;SDS011;11424;48.860;9.624;2022-11-20T21:25:35;1.5;;;1.6;;
22515;SDS011;11424;48.860;9.624;2022-11-20T21:30:35;1.3;;;1.4;;
22515;SDS011;11424;48.860;9.624;2022-11-20T21:35:35;0.8;;;0.8;;
22515;SDS011;11424;48.860;9.624;2022-11-20T21:40:35;0.9;;;0.9;;
22515;SDS011;11424;48.860;9.624;2022-11-20T21:45:35;1;;;1;;
22515;SDS011;11424;48.860;9.624;2022-11-20T21:50:35;0.6;;;0.6;;
22515;SDS011;11424;48.860;9.624;2022-11-20T21:55:35;0.5;;;0.5;;
22515;SDS011;11424;48.860;9.624;2022-11-20T22:00:35;0.8;;;0.8;;
22515;SDS011;11424;48.860;9.624;2022-11-20T22:05:35;1.3;;;1.4;;
22515;SDS011;11424;48.860;9.624;2022-11-20T22:10:35;1.3;;;1.4;;
22515;SDS011;11424;48.860;9.624;2022-11-20T22:15:35;1.5;;;1.7;;
22515;SDS011;11424;48.860;9.624;2022-11-20T22:20:35;2.2;;;2.4;;
22515;SDS011;11424;48.860;9.624;2022-11-20T22:25:35;2.3;;;2.9;;
22515;SDS011;11424;48.860;9.624;2022-11-20T22:30:35;1.8;;;1.9;;
22515;SDS011;11424;48.860;9.624;2022-11-20T22:35:35;1.6;;;1.7;;
22515;SDS011;11424;48.860;9.624;2022-11-20T22:40:35;1.6;;;1.7;;
22515;SDS011;11424;48.860;9.624;2022-11-20T22:45:35;1.3;;;1.4;;
22515;SDS011;11424;48.860;9.624;2022-11-20T22:50:35;2.1;;;2.3;;
22515;SDS011;11424;48.860;9.624;2022-11-20T22:55:35;1.4;;;1.5;;
22515;SDS011;11424;48.860;9.624;2022-11-20T23:00:35;0.9;;;1.4;;
22515;SDS011;11424;48.860;9.624;2022-11-20T23:05:35;1.4;;;1.7;;
22515;SDS011;11424;48.860;9.624;2022-11-20T23:10:35;2.1;;;3.3;;
22515;SDS011;11424;48.860;9.624;2022-11-20T23:15:35;2;;;2.8;;
22515;SDS011;11424;48.860;9.624;2022-11-20T23:20:35;2.3;;;3.3;;
22515;SDS011;11424;48.860;9.624;2022-11-20T23:25:35;1.6;;;2.3;;
22515;SDS011;11424;48.860;9.624;2022-11-20T23:30:35;1.1;;;1.2;;
22515;SDS011;11424;48.860;9.624;2022-11-20T23:35:37;0.8;;;0.8;;
22515;SDS011;11424;48.860;9.624;2022-11-20T23:40:35;0.8;;;0.8;;
22515;SDS011;11424;48.860;9.624;2022-11-20T23:45:36;1;;;1;;
22515;SDS011;11424;48.860;9.624;2022-11-20T23:50:35;0.9;;;1;;
22515;SDS011;11424;48.860;9.624;2022-11-20T23:55:35;0.8;;;0.8;;
